Time;durP1;ratioP1;P1;durP2;ratioP2;P2;SDS_P1;SDS_P2;PMS_P1;PMS_P2;Temp;Humidity;BMP_temperature;BMP_pressure;BME280_temperature;BME280_humidity;BME280_pressure;Samples;Min_cycle;Max_cycle;Signal;HPM_P1;HPM_P2
2023/01/28 00:00:27;;;;;;;8.60;3.20;;;;;;;;;;4987508;28;20097;-67
2023/01/28 00:02:52;;;;;;;6.50;3.80;;;;;;;;;;4985416;28;20049;-67
2023/01/28 00:05:17;;;;;;;7.10;3.40;;;;;;;;;;4986526;28;20471;-67
2023/01/28 00:07:42;;;;;;;13.55;3.33;;;;;;;;;;4987495;28;20057;-67
2023/01/28 00:10:08;;;;;;;6.35;3.35;;;;;;;;;;4990576;28;20249;-67
2023/01/28 00:12:33;;;;;;;6.82;4.00;;;;;;;;;;4990129;28;20033;-67
2023/01/28 00:14:58;;;;;;;10.43;3.60;;;;;;;;;;4983585;28;20097;-67
2023/01/28 00:17:23;;;;;;;7.63;3.53;;;;;;;;;;4985207;28;20071;-67
2023/01/28 00:19:49;;;;;;;6.40;3.50;;;;;;;;;;4988427;28;20429;-67
2023/01/28 00:22:14;;;;;;;6.93;3.40;;;;;;;;;;4984568;28;20034;-67
2023/01/28 00:24:39;;;;;;;6.65;3.78;;;;;;;;;;4987266;28;20022;-68
2023/01/28 00:27:04;;;;;;;7.85;3.45;;;;;;;;;;4988439;28;20058;-67
2023/01/28 00:29:29;;;;;;;13.43;3.83;;;;;;;;;;4984311;28;20055;-67
2023/01/28 00:31:55;;;;;;;6.93;3.50;;;;;;;;;;4986899;28;20327;-67
2023/01/28 00:34:21;;;;;;;5.55;3.70;;;;;;;;;;4986858;28;20352;-67
2023/01/28 00:36:56;;;;;;;9.13;3.78;;;;;;;;;;4986852;28;20513;-67
2023/01/28 00:39:21;;;;;;;11.63;4.32;;;;;;;;;;4988595;28;20029;-67
2023/01/28 00:41:46;;;;;;;8.65;3.95;;;;;;;;;;4990366;28;20010;-68
2023/01/28 00:44:11;;;;;;;9.63;4.43;;;;;;;;;;4986574;28;20566;-68
2023/01/28 00:46:36;;;;;;;8.43;3.67;;;;;;;;;;4988387;28;20254;-68
2023/01/28 00:49:02;;;;;;;8.05;4.20;;;;;;;;;;4990221;28;20667;-68
2023/01/28 00:51:27;;;;;;;7.18;4.03;;;;;;;;;;4988597;28;20109;-68
2023/01/28 00:53:52;;;;;;;8.20;4.75;;;;;;;;;;4990367;28;20080;-68
2023/01/28 00:56:18;;;;;;;12.05;5.43;;;;;;;;;;4989970;28;20018;-68
2023/01/28 00:58:44;;;;;;;9.95;4.63;;;;;;;;;;4988549;28;20026;-68
2023/01/28 01:01:10;;;;;;;7.63;4.22;;;;;;;;;;4987520;28;20073;-68
2023/01/28 01:03:35;;;;;;;11.52;5.13;;;;;;;;;;4990284;28;20014;-68
2023/01/28 01:06:01;;;;;;;7.90;4.45;;;;;;;;;;4985767;28;20047;-68
2023/01/28 01:08:33;;;;;;;9.82;5.07;;;;;;;;;;4982301;28;20400;-68
2023/01/28 01:10:59;;;;;;;7.85;4.07;;;;;;;;;;4984816;28;20030;-68
2023/01/28 01:13:24;;;;;;;10.50;5.03;;;;;;;;;;4986904;28;20034;-68
2023/01/28 01:15:49;;;;;;;8.85;4.65;;;;;;;;;;4986903;28;20033;-67
2023/01/28 01:18:14;;;;;;;9.98;5.30;;;;;;;;;;4987995;28;20026;-67
2023/01/28 01:20:44;;;;;;;10.03;5.30;;;;;;;;;;4989591;28;20475;-68
2023/01/28 01:23:09;;;;;;;8.93;4.90;;;;;;;;;;4988471;28;20301;-68
2023/01/28 01:25:34;;;;;;;9.40;4.65;;;;;;;;;;4990512;28;20081;-68
2023/01/28 01:28:00;;;;;;;10.23;5.32;;;;;;;;;;4989290;28;20018;-68
2023/01/28 01:30:25;;;;;;;9.65;4.53;;;;;;;;;;4989856;28;20054;-68
2023/01/28 01:32:51;;;;;;;7.78;4.20;;;;;;;;;;4989991;28;20050;-68
2023/01/28 01:35:16;;;;;;;11.10;5.30;;;;;;;;;;4990412;28;20022;-68
2023/01/28 01:37:43;;;;;;;12.45;5.00;;;;;;;;;;4985309;28;20093;-68
2023/01/28 01:40:09;;;;;;;10.43;5.28;;;;;;;;;;4990042;28;20080;-68
2023/01/28 01:42:34;;;;;;;8.63;4.85;;;;;;;;;;4992946;28;20026;-67
2023/01/28 01:45:01;;;;;;;9.38;5.47;;;;;;;;;;4990875;28;20065;-67
2023/01/28 01:47:30;;;;;;;7.93;4.53;;;;;;;;;;4990879;28;20431;-67
2023/01/28 01:49:55;;;;;;;10.98;5.22;;;;;;;;;;4988978;28;20032;-67
2023/01/28 01:52:27;;;;;;;12.82;5.57;;;;;;;;;;4992119;28;20105;-67
2023/01/28 01:54:55;;;;;;;8.77;5.00;;;;;;;;;;4987952;28;20042;-67
2023/01/28 01:57:25;;;;;;;9.35;5.50;;;;;;;;;;4987123;28;20019;-67
2023/01/28 01:59:51;;;;;;;12.05;5.82;;;;;;;;;;4991601;28;20541;-67
2023/01/28 02:02:16;;;;;;;11.02;5.45;;;;;;;;;;4993128;28;20022;-67
2023/01/28 02:04:43;;;;;;;9.45;5.38;;;;;;;;;;4990309;28;20018;-67
2023/01/28 02:07:09;;;;;;;11.77;5.82;;;;;;;;;;4991629;28;20224;-67
2023/01/28 02:09:36;;;;;;;18.77;6.40;;;;;;;;;;4993048;28;20109;-67
2023/01/28 02:12:07;;;;;;;11.00;5.88;;;;;;;;;;4989727;28;20467;-67
2023/01/28 02:14:33;;;;;;;15.95;5.93;;;;;;;;;;4985767;28;20019;-67
2023/01/28 02:17:00;;;;;;;9.30;5.35;;;;;;;;;;4987222;28;20052;-67
2023/01/28 02:19:29;;;;;;;12.77;6.80;;;;;;;;;;4985992;28;20030;-67
2023/01/28 02:22:04;;;;;;;13.07;5.90;;;;;;;;;;4991763;28;20057;-67
2023/01/28 02:24:32;;;;;;;9.90;5.88;;;;;;;;;;4985525;28;20027;-67
2023/01/28 02:27:16;;;;;;;14.02;5.78;;;;;;;;;;4990310;28;20470;-67
2023/01/28 02:29:46;;;;;;;11.98;6.18;;;;;;;;;;4985678;28;20121;-67
2023/01/28 02:32:23;;;;;;;11.00;5.68;;;;;;;;;;4987694;28;20467;-67
2023/01/28 02:34:58;;;;;;;9.82;5.45;;;;;;;;;;4988752;28;20066;-67
2023/01/28 02:37:42;;;;;;;11.45;6.10;;;;;;;;;;4986409;28;20030;-67
2023/01/28 02:40:12;;;;;;;16.90;7.07;;;;;;;;;;4985626;28;20022;-67
2023/01/28 02:42:38;;;;;;;16.42;7.20;;;;;;;;;;4985053;28;20018;-67
2023/01/28 02:45:24;;;;;;;22.48;8.63;;;;;;;;;;4987531;28;20037;-67
2023/01/28 02:47:59;;;;;;;22.45;8.68;;;;;;;;;;4990592;28;20093;-67
2023/01/28 02:50:41;;;;;;;19.50;9.80;;;;;;;;;;4989383;28;20554;-67
2023/01/28 02:53:42;;;;;;;22.58;7.30;;;;;;;;;;4992542;28;20018;-68
2023/01/28 02:56:43;;;;;;;19.90;8.52;;;;;;;;;;4984390;28;20022;-67
2023/01/28 02:59:29;;;;;;;19.13;8.70;;;;;;;;;;4873008;29;20966;-67
2023/01/28 03:02:15;;;;;;;18.85;8.00;;;;;;;;;;4982981;28;20034;-67
2023/01/28 03:04:45;;;;;;;18.95;7.70;;;;;;;;;;4941594;28;20050;-67
2023/01/28 03:07:11;;;;;;;15.27;7.32;;;;;;;;;;4991876;28;20010;-67
2023/01/28 03:09:37;;;;;;;15.77;7.05;;;;;;;;;;4992041;28;20023;-67
2023/01/28 03:37:20;;;;;;;18.40;8.55;;;;;;;;;;4981153;28;20062;-68
2023/01/28 03:39:46;;;;;;;18.42;8.50;;;;;;;;;;4984442;28;20483;-68
2023/01/28 03:42:13;;;;;;;16.23;8.40;;;;;;;;;;4984642;28;20164;-67
2023/01/28 03:47:15;;;;;;;16.50;8.40;;;;;;;;;;4985729;28;20029;-68
2023/01/28 03:49:44;;;;;;;25.38;9.00;;;;;;;;;;4990756;28;20015;-68
2023/01/28 03:52:11;;;;;;;22.40;8.27;;;;;;;;;;4991287;28;20514;-67
2023/01/28 03:54:36;;;;;;;19.27;9.07;;;;;;;;;;4989876;28;20089;-67
2023/01/28 03:57:01;;;;;;;19.05;8.88;;;;;;;;;;4988759;28;20102;-67
2023/01/28 03:59:26;;;;;;;18.02;8.75;;;;;;;;;;4990541;28;20479;-68
2023/01/28 04:01:52;;;;;;;17.70;9.25;;;;;;;;;;4990979;28;20283;-67
2023/01/28 04:04:23;;;;;;;25.45;9.35;;;;;;;;;;4987334;28;20025;-67
2023/01/28 04:06:52;;;;;;;18.58;9.60;;;;;;;;;;4989268;28;20011;-68
2023/01/28 04:09:17;;;;;;;19.10;8.70;;;;;;;;;;4987130;28;20019;-67
2023/01/28 04:11:42;;;;;;;19.50;9.35;;;;;;;;;;4988736;28;20402;-67
2023/01/28 04:14:07;;;;;;;19.20;9.07;;;;;;;;;;4990645;28;20406;-68
2023/01/28 04:16:33;;;;;;;19.77;9.73;;;;;;;;;;4988417;28;20472;-67
2023/01/28 04:18:58;;;;;;;17.15;9.02;;;;;;;;;;4984134;28;20030;-68
2023/01/28 04:21:23;;;;;;;16.92;8.65;;;;;;;;;;4985020;28;20045;-67
2023/01/28 04:23:48;;;;;;;17.10;8.63;;;;;;;;;;4987608;28;20057;-68
2023/01/28 04:26:13;;;;;;;15.02;9.02;;;;;;;;;;4987226;28;20026;-67
2023/01/28 04:28:39;;;;;;;18.63;9.07;;;;;;;;;;4972389;28;20105;-68
2023/01/28 04:31:04;;;;;;;21.65;8.68;;;;;;;;;;4986290;28;20422;-68
2023/01/28 04:33:29;;;;;;;19.27;8.55;;;;;;;;;;4986697;28;20042;-67
2023/01/28 04:35:54;;;;;;;17.73;8.90;;;;;;;;;;4984900;28;20094;-68
2023/01/28 04:38:19;;;;;;;16.45;8.27;;;;;;;;;;4969378;28;20034;-67
2023/01/28 04:40:48;;;;;;;21.88;8.00;;;;;;;;;;4989778;28;20033;-68
2023/01/28 04:43:13;;;;;;;14.77;7.97;;;;;;;;;;4987373;28;20467;-68
2023/01/28 04:45:38;;;;;;;16.63;8.10;;;;;;;;;;4986350;28;20037;-68
2023/01/28 04:48:04;;;;;;;16.25;9.15;;;;;;;;;;4988343;28;20025;-68
2023/01/28 04:50:29;;;;;;;21.58;9.02;;;;;;;;;;4986666;28;20125;-68
2023/01/28 04:52:54;;;;;;;15.50;8.35;;;;;;;;;;4986018;28;20371;-68
2023/01/28 04:55:19;;;;;;;18.10;8.20;;;;;;;;;;4987116;28;20061;-67
2023/01/28 04:57:46;;;;;;;16.00;7.97;;;;;;;;;;4971333;28;20387;-68
2023/01/28 05:00:12;;;;;;;16.20;8.45;;;;;;;;;;4985272;28;20022;-68
2023/01/28 05:02:37;;;;;;;19.67;8.10;;;;;;;;;;4980154;28;20066;-67
2023/01/28 05:05:04;;;;;;;15.60;8.18;;;;;;;;;;4988675;28;20081;-67
2023/01/28 05:07:30;;;;;;;18.17;8.57;;;;;;;;;;4985705;28;20438;-67
2023/01/28 05:09:55;;;;;;;15.35;7.70;;;;;;;;;;4988561;28;20030;-68
2023/01/28 05:12:20;;;;;;;16.63;8.47;;;;;;;;;;4969967;28;20324;-68
2023/01/28 05:14:45;;;;;;;16.38;8.23;;;;;;;;;;4987145;28;20265;-68
2023/01/28 05:17:10;;;;;;;19.65;9.32;;;;;;;;;;4985997;28;20546;-68
2023/01/28 05:19:35;;;;;;;16.10;8.43;;;;;;;;;;4987384;28;20026;-68
2023/01/28 05:22:01;;;;;;;18.48;7.90;;;;;;;;;;4988052;28;20407;-68
2023/01/28 05:24:26;;;;;;;21.50;8.63;;;;;;;;;;4986454;28;20054;-68
2023/01/28 05:26:51;;;;;;;20.25;8.82;;;;;;;;;;4984559;28;20064;-68
2023/01/28 05:29:16;;;;;;;17.42;9.05;;;;;;;;;;4987263;28;20042;-68
2023/01/28 05:31:41;;;;;;;16.85;7.80;;;;;;;;;;4983854;28;20494;-68
2023/01/28 05:34:07;;;;;;;14.80;8.02;;;;;;;;;;4988787;28;20109;-68
2023/01/28 05:36:32;;;;;;;16.13;7.93;;;;;;;;;;4985227;28;20400;-68
2023/01/28 05:38:57;;;;;;;21.88;8.52;;;;;;;;;;4988446;28;20058;-68
2023/01/28 05:41:22;;;;;;;15.90;8.70;;;;;;;;;;4988246;28;20087;-68
2023/01/28 05:43:48;;;;;;;15.97;8.43;;;;;;;;;;4985555;28;20499;-69
2023/01/28 05:46:13;;;;;;;19.35;9.27;;;;;;;;;;4992142;28;20276;-69
2023/01/28 05:48:38;;;;;;;17.48;8.48;;;;;;;;;;4988140;28;20502;-69
2023/01/28 05:51:04;;;;;;;12.35;7.57;;;;;;;;;;4988102;28;20035;-70
2023/01/28 05:53:29;;;;;;;19.17;7.70;;;;;;;;;;4987002;28;20034;-69
2023/01/28 05:55:54;;;;;;;16.88;7.60;;;;;;;;;;4987072;28;20027;-69
2023/01/28 05:58:20;;;;;;;15.63;7.93;;;;;;;;;;4989571;28;20030;-69
2023/01/28 06:00:45;;;;;;;18.48;8.13;;;;;;;;;;4983583;28;20101;-69
2023/01/28 06:03:11;;;;;;;12.02;7.68;;;;;;;;;;4990251;28;20157;-69
2023/01/28 06:05:36;;;;;;;13.18;7.32;;;;;;;;;;4992744;28;20238;-69
2023/01/28 06:08:01;;;;;;;13.00;6.82;;;;;;;;;;4990072;28;20018;-69
2023/01/28 06:10:27;;;;;;;12.65;7.80;;;;;;;;;;4985215;28;20027;-69
2023/01/28 06:12:52;;;;;;;22.63;8.15;;;;;;;;;;4993272;28;20036;-69
2023/01/28 06:15:17;;;;;;;12.85;7.82;;;;;;;;;;4993193;28;20014;-69
2023/01/28 06:17:42;;;;;;;13.67;7.70;;;;;;;;;;4989458;28;20406;-69
2023/01/28 06:20:08;;;;;;;17.40;7.50;;;;;;;;;;4992040;28;20292;-69
2023/01/28 06:22:33;;;;;;;11.48;7.22;;;;;;;;;;4990763;28;20107;-69
2023/01/28 06:24:58;;;;;;;12.13;7.00;;;;;;;;;;4990737;28;20081;-69
2023/01/28 06:27:23;;;;;;;12.52;7.03;;;;;;;;;;4988876;28;20097;-69
2023/01/28 06:29:48;;;;;;;12.68;7.63;;;;;;;;;;4989467;28;20058;-69
2023/01/28 06:32:14;;;;;;;16.30;6.93;;;;;;;;;;4988186;28;20014;-69
2023/01/28 06:34:39;;;;;;;13.55;7.30;;;;;;;;;;4988246;28;20054;-69
2023/01/28 06:37:04;;;;;;;12.48;6.78;;;;;;;;;;4988523;28;20054;-69
2023/01/28 06:39:32;;;;;;;13.90;6.70;;;;;;;;;;4989872;28;20317;-69
2023/01/28 06:41:58;;;;;;;11.90;7.20;;;;;;;;;;4992836;28;20022;-69
2023/01/28 06:44:23;;;;;;;13.45;7.60;;;;;;;;;;4988648;28;20101;-69
2023/01/28 06:46:48;;;;;;;14.40;6.85;;;;;;;;;;4990072;28;20467;-69
2023/01/28 06:49:14;;;;;;;13.98;6.75;;;;;;;;;;4990248;28;20093;-69
2023/01/28 06:51:39;;;;;;;12.98;6.90;;;;;;;;;;4989418;28;20465;-69
2023/01/28 06:54:04;;;;;;;13.10;7.30;;;;;;;;;;4990287;28;20025;-69
2023/01/28 06:56:29;;;;;;;13.88;7.45;;;;;;;;;;4988745;28;20057;-69
2023/01/28 06:58:54;;;;;;;16.67;7.93;;;;;;;;;;4989478;28;20026;-69
2023/01/28 07:01:20;;;;;;;12.63;7.50;;;;;;;;;;4989685;28;20034;-69
2023/01/28 07:03:45;;;;;;;13.38;7.50;;;;;;;;;;4971599;28;20062;-69
2023/01/28 07:06:10;;;;;;;14.02;7.00;;;;;;;;;;4990698;28;20018;-69
2023/01/28 07:08:36;;;;;;;18.52;8.55;;;;;;;;;;4988845;28;20039;-69
2023/01/28 07:11:02;;;;;;;12.88;7.55;;;;;;;;;;4990636;28;20064;-69
2023/01/28 07:13:28;;;;;;;19.42;8.32;;;;;;;;;;4988359;28;20029;-69
2023/01/28 07:15:53;;;;;;;13.48;7.82;;;;;;;;;;4988724;28;20018;-69
2023/01/28 07:18:18;;;;;;;17.92;9.90;;;;;;;;;;4988130;28;20228;-69
2023/01/28 07:20:43;;;;;;;18.02;9.52;;;;;;;;;;4987692;28;20018;-69
2023/01/28 07:23:08;;;;;;;18.50;8.60;;;;;;;;;;4990021;28;20030;-69
2023/01/28 07:25:34;;;;;;;16.88;9.95;;;;;;;;;;4990903;28;20026;-69
2023/01/28 07:27:59;;;;;;;21.30;11.60;;;;;;;;;;4986561;28;20019;-69
2023/01/28 07:30:24;;;;;;;18.45;10.55;;;;;;;;;;4990302;28;20093;-69
2023/01/28 07:32:53;;;;;;;16.75;9.77;;;;;;;;;;4990038;28;20037;-69
2023/01/28 07:35:18;;;;;;;18.08;10.77;;;;;;;;;;4990237;28;20038;-69
2023/01/28 07:37:49;;;;;;;19.23;10.18;;;;;;;;;;4989855;28;20423;-69
2023/01/28 07:40:15;;;;;;;19.05;9.98;;;;;;;;;;4989298;28;20026;-69
2023/01/28 07:42:41;;;;;;;18.33;9.48;;;;;;;;;;4988144;28;20077;-69
2023/01/28 07:45:06;;;;;;;17.27;10.13;;;;;;;;;;4987743;28;20014;-69
2023/01/28 07:47:32;;;;;;;16.40;8.63;;;;;;;;;;4985978;28;20093;-69
2023/01/28 07:49:57;;;;;;;16.25;8.10;;;;;;;;;;4988305;28;20026;-69
2023/01/28 07:52:22;;;;;;;14.02;8.60;;;;;;;;;;4987717;28;20411;-69
2023/01/28 07:54:47;;;;;;;14.73;8.27;;;;;;;;;;4990196;28;20092;-69
2023/01/28 07:57:13;;;;;;;15.27;8.07;;;;;;;;;;4988666;28;20058;-69
2023/01/28 07:59:38;;;;;;;16.48;8.05;;;;;;;;;;4989123;28;20414;-69
2023/01/28 08:02:03;;;;;;;16.95;7.72;;;;;;;;;;4986313;28;20529;-69
2023/01/28 08:04:28;;;;;;;15.40;8.27;;;;;;;;;;4984269;28;20058;-69
2023/01/28 08:06:53;;;;;;;15.52;8.15;;;;;;;;;;4990504;28;20485;-69
2023/01/28 08:09:19;;;;;;;14.77;9.10;;;;;;;;;;4990611;28;20029;-69
2023/01/28 08:11:44;;;;;;;14.60;8.18;;;;;;;;;;4990410;28;20265;-69
2023/01/28 08:14:09;;;;;;;16.30;8.85;;;;;;;;;;4990909;28;20073;-69
2023/01/28 08:16:35;;;;;;;14.73;7.88;;;;;;;;;;4989874;28;20048;-69
2023/01/28 08:19:00;;;;;;;32.75;7.78;;;;;;;;;;4972161;28;20022;-69
2023/01/28 08:21:25;;;;;;;13.32;8.38;;;;;;;;;;4988702;28;20072;-69
2023/01/28 08:23:50;;;;;;;11.40;7.15;;;;;;;;;;4989190;28;20022;-69
2023/01/28 08:26:16;;;;;;;11.95;7.20;;;;;;;;;;4989673;28;20467;-69
2023/01/28 08:28:41;;;;;;;8.98;6.32;;;;;;;;;;4988929;28;20068;-69
2023/01/28 08:31:06;;;;;;;10.30;6.30;;;;;;;;;;4990178;28;20019;-69
2023/01/28 08:33:31;;;;;;;36.40;7.80;;;;;;;;;;4988296;28;20038;-69
2023/01/28 08:35:56;;;;;;;48.58;10.43;;;;;;;;;;4989880;28;20064;-69
2023/01/28 08:38:22;;;;;;;21.00;7.72;;;;;;;;;;4988436;28;20038;-69
2023/01/28 08:40:49;;;;;;;14.77;7.15;;;;;;;;;;4989631;28;20117;-69
2023/01/28 08:43:14;;;;;;;10.60;6.88;;;;;;;;;;4990098;28;20029;-69
2023/01/28 08:45:40;;;;;;;26.92;8.13;;;;;;;;;;4988786;28;20022;-69
2023/01/28 08:48:06;;;;;;;10.10;6.60;;;;;;;;;;4989049;28;20060;-69
2023/01/28 08:50:35;;;;;;;10.13;6.25;;;;;;;;;;4989110;28;20018;-69
2023/01/28 08:53:04;;;;;;;8.60;6.03;;;;;;;;;;4989125;28;20105;-69
2023/01/28 08:55:29;;;;;;;8.65;5.40;;;;;;;;;;4974474;28;20035;-69
2023/01/28 08:57:55;;;;;;;8.30;4.78;;;;;;;;;;4970526;28;20023;-69
2023/01/28 09:00:21;;;;;;;12.68;5.95;;;;;;;;;;4981217;28;20482;-69
2023/01/28 09:02:46;;;;;;;9.18;5.13;;;;;;;;;;4983699;28;20034;-69
2023/01/28 09:05:11;;;;;;;11.55;7.03;;;;;;;;;;4985865;28;20379;-69
2023/01/28 09:07:37;;;;;;;12.20;7.35;;;;;;;;;;4986362;28;20518;-69
2023/01/28 09:10:03;;;;;;;11.75;7.03;;;;;;;;;;4971197;28;20027;-69
2023/01/28 09:12:29;;;;;;;19.73;7.80;;;;;;;;;;4978303;28;20022;-69
2023/01/28 09:14:54;;;;;;;12.27;6.07;;;;;;;;;;4988317;28;20026;-69
2023/01/28 09:17:20;;;;;;;21.48;7.55;;;;;;;;;;4982552;28;20037;-68
2023/01/28 09:19:45;;;;;;;12.52;7.68;;;;;;;;;;4981452;28;20035;-69
2023/01/28 09:22:10;;;;;;;18.05;8.80;;;;;;;;;;4973986;28;20124;-69
2023/01/28 09:24:35;;;;;;;11.95;6.78;;;;;;;;;;4976371;28;20098;-69
2023/01/28 09:27:01;;;;;;;19.85;6.90;;;;;;;;;;4979821;28;20471;-69
2023/01/28 09:29:26;;;;;;;14.43;7.57;;;;;;;;;;4984572;28;20117;-69
2023/01/28 09:31:51;;;;;;;13.40;7.68;;;;;;;;;;4969159;28;20081;-69
2023/01/28 09:34:16;;;;;;;18.48;8.35;;;;;;;;;;4988012;28;20019;-69
2023/01/28 09:36:41;;;;;;;19.73;9.38;;;;;;;;;;4985422;28;20034;-69
2023/01/28 09:39:07;;;;;;;14.50;8.10;;;;;;;;;;4987523;28;20026;-68
2023/01/28 09:41:48;;;;;;;12.70;7.88;;;;;;;;;;4992164;28;20367;-69
2023/01/28 09:44:13;;;;;;;11.98;7.53;;;;;;;;;;4976222;28;20023;-69
2023/01/28 09:46:41;;;;;;;12.95;7.65;;;;;;;;;;4978080;28;20037;-69
2023/01/28 09:49:23;;;;;;;13.52;7.40;;;;;;;;;;4990184;28;20869;-69
2023/01/28 09:51:51;;;;;;;17.95;9.27;;;;;;;;;;4989401;28;20034;-69
2023/01/28 09:54:33;;;;;;;16.27;8.95;;;;;;;;;;4988173;28;20029;-69
2023/01/28 09:57:04;;;;;;;13.40;8.43;;;;;;;;;;4992559;28;20122;-69
2023/01/28 09:59:32;;;;;;;17.00;9.60;;;;;;;;;;4993696;28;20038;-69
2023/01/28 10:02:00;;;;;;;25.60;9.85;;;;;;;;;;4991883;28;20126;-69
2023/01/28 10:04:31;;;;;;;20.05;11.40;;;;;;;;;;4990980;28;20065;-69
2023/01/28 10:06:59;;;;;;;24.60;11.02;;;;;;;;;;4989116;28;20022;-67
2023/01/28 10:09:34;;;;;;;19.48;12.32;;;;;;;;;;4989651;28;20046;-68
2023/01/28 10:12:17;;;;;;;24.98;12.23;;;;;;;;;;4987725;28;20030;-68
2023/01/28 10:14:54;;;;;;;20.65;11.88;;;;;;;;;;4990771;28;20022;-68
2023/01/28 10:17:20;;;;;;;29.40;13.20;;;;;;;;;;4987508;28;20054;-68
2023/01/28 10:19:48;;;;;;;26.63;13.85;;;;;;;;;;4990407;28;20050;-68
2023/01/28 10:22:17;;;;;;;27.00;13.32;;;;;;;;;;4987732;28;20118;-68
2023/01/28 10:24:45;;;;;;;32.92;13.30;;;;;;;;;;4985502;28;20391;-68
2023/01/28 10:27:14;;;;;;;23.02;11.65;;;;;;;;;;4985959;28;20042;-68
2023/01/28 10:29:42;;;;;;;23.73;12.40;;;;;;;;;;4991102;28;20018;-68
2023/01/28 10:32:10;;;;;;;21.90;13.15;;;;;;;;;;4993336;28;20018;-67
2023/01/28 10:34:36;;;;;;;27.30;14.07;;;;;;;;;;4992464;28;20038;-67
2023/01/28 10:37:01;;;;;;;26.40;13.75;;;;;;;;;;4982083;28;20109;-68
2023/01/28 10:39:27;;;;;;;24.50;13.05;;;;;;;;;;4990123;28;20387;-68
2023/01/28 10:41:52;;;;;;;28.38;14.52;;;;;;;;;;4992160;28;20335;-68
2023/01/28 10:44:24;;;;;;;30.67;16.13;;;;;;;;;;4979437;28;20014;-68
2023/01/28 10:46:50;;;;;;;33.80;17.02;;;;;;;;;;4991872;28;20027;-68
2023/01/28 10:49:21;;;;;;;44.00;20.00;;;;;;;;;;4987109;28;20019;-68
2023/01/28 10:51:46;;;;;;;32.78;17.23;;;;;;;;;;4975795;28;20030;-68
2023/01/28 10:54:25;;;;;;;36.60;17.77;;;;;;;;;;4987318;28;20376;-67
2023/01/28 10:56:56;;;;;;;35.45;16.75;;;;;;;;;;4976033;28;20053;-67
2023/01/28 10:59:25;;;;;;;33.42;16.42;;;;;;;;;;4975400;28;20086;-67
2023/01/28 11:01:52;;;;;;;42.38;17.73;;;;;;;;;;4992303;28;20022;-67
2023/01/28 11:04:29;;;;;;;34.97;17.33;;;;;;;;;;4981935;28;20026;-68
2023/01/28 11:06:58;;;;;;;30.35;16.42;;;;;;;;;;4984833;28;20061;-67
2023/01/28 11:09:25;;;;;;;20.08;10.55;;;;;;;;;;4992782;28;20077;-68
2023/01/28 11:11:50;;;;;;;22.23;13.10;;;;;;;;;;4981311;28;20113;-68
2023/01/28 11:14:19;;;;;;;21.77;13.60;;;;;;;;;;4981062;28;20098;-68
2023/01/28 11:16:44;;;;;;;20.95;11.10;;;;;;;;;;4984505;28;20510;-68
2023/01/28 11:19:10;;;;;;;25.70;12.55;;;;;;;;;;4987075;28;20366;-68
2023/01/28 11:21:36;;;;;;;21.88;11.85;;;;;;;;;;4990337;28;20026;-68
2023/01/28 11:24:03;;;;;;;22.67;12.32;;;;;;;;;;4987345;28;20025;-68
2023/01/28 11:26:36;;;;;;;22.75;12.98;;;;;;;;;;4975705;28;20106;-67
2023/01/28 11:29:01;;;;;;;24.35;13.27;;;;;;;;;;4991943;28;20018;-67
2023/01/28 11:31:27;;;;;;;24.05;14.77;;;;;;;;;;4984483;28;20098;-68
2023/01/28 11:33:56;;;;;;;26.40;13.77;;;;;;;;;;4976024;28;20018;-68
2023/01/28 11:36:22;;;;;;;22.27;13.07;;;;;;;;;;4975052;28;20484;-67
2023/01/28 11:38:52;;;;;;;21.92;13.02;;;;;;;;;;4989115;28;20026;-67
2023/01/28 11:41:18;;;;;;;23.63;12.40;;;;;;;;;;4975715;28;20123;-68
2023/01/28 11:43:46;;;;;;;26.33;12.90;;;;;;;;;;4996431;28;20541;-67
2023/01/28 11:46:17;;;;;;;29.35;12.88;;;;;;;;;;4979273;28;20019;-67
2023/01/28 11:48:42;;;;;;;26.80;12.88;;;;;;;;;;4983700;28;20042;-67
2023/01/28 11:51:25;;;;;;;22.08;12.63;;;;;;;;;;4991654;28;20121;-68
2023/01/28 11:54:00;;;;;;;23.20;12.13;;;;;;;;;;4981316;28;20301;-68
2023/01/28 11:56:38;;;;;;;29.00;12.88;;;;;;;;;;4981131;28;20033;-68
2023/01/28 11:59:09;;;;;;;22.45;12.18;;;;;;;;;;4985848;28;20050;-67
2023/01/28 12:01:42;;;;;;;25.58;13.23;;;;;;;;;;4978657;28;20030;-68
2023/01/28 12:04:19;;;;;;;26.30;13.45;;;;;;;;;;4989257;28;20010;-67
2023/01/28 12:07:03;;;;;;;20.30;12.23;;;;;;;;;;4991447;28;20029;-68
2023/01/28 12:09:42;;;;;;;25.23;15.02;;;;;;;;;;4990816;28;20019;-68
2023/01/28 12:12:10;;;;;;;25.80;12.88;;;;;;;;;;4975221;28;20364;-67
2023/01/28 12:14:53;;;;;;;24.75;12.75;;;;;;;;;;4978154;28;20019;-67
2023/01/28 12:17:21;;;;;;;26.73;13.48;;;;;;;;;;4996611;28;20021;-68
2023/01/28 12:19:46;;;;;;;27.98;13.45;;;;;;;;;;4991423;28;20022;-67
2023/01/28 12:22:11;;;;;;;24.08;13.95;;;;;;;;;;4991555;28;20026;-67
2023/01/28 12:24:43;;;;;;;31.77;15.60;;;;;;;;;;4986347;28;20638;-67
2023/01/28 12:27:08;;;;;;;31.13;14.38;;;;;;;;;;4985414;28;20269;-67
2023/01/28 12:29:48;;;;;;;30.42;14.80;;;;;;;;;;4988767;28;20018;-67
2023/01/28 12:32:30;;;;;;;34.95;14.00;;;;;;;;;;4991793;28;20825;-67
2023/01/28 12:35:14;;;;;;;27.67;13.88;;;;;;;;;;4987623;28;20113;-67
2023/01/28 12:37:57;;;;;;;31.85;13.90;;;;;;;;;;4980084;28;20233;-67
2023/01/28 12:40:41;;;;;;;27.77;13.23;;;;;;;;;;4985711;28;20088;-67
2023/01/28 12:43:25;;;;;;;31.65;12.05;;;;;;;;;;4983535;28;20053;-67
2023/01/28 12:46:10;;;;;;;25.77;12.70;;;;;;;;;;4980369;28;20097;-67
2023/01/28 12:48:38;;;;;;;22.65;13.02;;;;;;;;;;4982218;28;20475;-68
2023/01/28 12:51:09;;;;;;;23.98;12.38;;;;;;;;;;4980867;28;20054;-67
2023/01/28 12:53:34;;;;;;;;;;;;;;;;;;4979341;28;20488;-67
2023/01/28 12:56:05;;;;;;;28.35;14.00;;;;;;;;;;4978707;28;20433;-67
2023/01/28 12:58:49;;;;;;;28.65;14.95;;;;;;;;;;4986564;28;20145;-67
2023/01/28 13:01:17;;;;;;;29.65;15.90;;;;;;;;;;4977943;28;20018;-67
2023/01/28 13:03:52;;;;;;;23.50;12.40;;;;;;;;;;4986807;28;20113;-68
2023/01/28 13:06:23;;;;;;;21.75;12.85;;;;;;;;;;4983031;28;20022;-67
2023/01/28 13:08:49;;;;;;;21.50;11.77;;;;;;;;;;4985297;28;20033;-67
2023/01/28 13:11:16;;;;;;;25.83;13.75;;;;;;;;;;4982083;28;20023;-68
2023/01/28 13:13:42;;;;;;;23.45;10.57;;;;;;;;;;4980785;28;20106;-68
2023/01/28 13:16:08;;;;;;;23.20;12.40;;;;;;;;;;4984209;28;20471;-68
2023/01/28 13:18:39;;;;;;;21.65;11.85;;;;;;;;;;4989405;28;20069;-67
2023/01/28 13:21:06;;;;;;;23.40;11.73;;;;;;;;;;4981847;28;20551;-68
2023/01/28 13:23:37;;;;;;;21.05;11.25;;;;;;;;;;4989192;28;20026;-68
2023/01/28 13:26:18;;;;;;;19.25;11.98;;;;;;;;;;4989705;28;20034;-68
2023/01/28 13:28:43;;;;;;;18.30;10.55;;;;;;;;;;4986782;28;20411;-67
2023/01/28 13:31:16;;;;;;;19.83;9.90;;;;;;;;;;4988234;28;20034;-68
2023/01/28 13:33:41;;;;;;;17.88;10.25;;;;;;;;;;4981918;28;20023;-67
2023/01/28 13:36:06;;;;;;;14.48;7.78;;;;;;;;;;4991448;28;20040;-67
2023/01/28 13:38:32;;;;;;;10.45;5.72;;;;;;;;;;4985803;28;20025;-67
2023/01/28 13:41:30;;;;;;;17.13;9.38;;;;;;;;;;4989417;28;20105;-67
2023/01/28 13:43:57;;;;;;;18.77;10.18;;;;;;;;;;4992696;28;20022;-67
2023/01/28 13:46:26;;;;;;;13.13;8.98;;;;;;;;;;4991712;28;20467;-68
2023/01/28 13:48:53;;;;;;;14.07;8.57;;;;;;;;;;4989658;28;20028;-67
2023/01/28 13:51:32;;;;;;;14.35;9.80;;;;;;;;;;4983176;28;20033;-67
2023/01/28 13:54:26;;;;;;;12.77;6.45;;;;;;;;;;4989747;28;20026;-67
2023/01/28 13:56:58;;;;;;;14.05;9.25;;;;;;;;;;4969300;28;20039;-68
2023/01/28 13:59:35;;;;;;;16.10;9.75;;;;;;;;;;4991626;28;20072;-67
2023/01/28 14:02:15;;;;;;;15.57;8.45;;;;;;;;;;4990587;28;20116;-68
2023/01/28 14:04:49;;;;;;;16.20;8.27;;;;;;;;;;4989705;28;20061;-68
2023/01/28 14:07:20;;;;;;;16.95;10.02;;;;;;;;;;4988029;28;20022;-68
2023/01/28 14:09:45;;;;;;;12.82;8.27;;;;;;;;;;4988566;28;20022;-68
2023/01/28 14:12:29;;;;;;;14.40;8.60;;;;;;;;;;4989694;28;20076;-68
2023/01/28 14:15:13;;;;;;;20.23;9.70;;;;;;;;;;4986284;28;20398;-68
2023/01/28 14:17:48;;;;;;;16.30;9.00;;;;;;;;;;4989360;28;20515;-66
2023/01/28 14:20:13;;;;;;;13.63;8.63;;;;;;;;;;4987584;28;20125;-67
2023/01/28 14:22:40;;;;;;;12.10;8.68;;;;;;;;;;4987368;28;20656;-67
2023/01/28 14:25:10;;;;;;;15.95;9.18;;;;;;;;;;4989307;28;20273;-67
2023/01/28 14:27:37;;;;;;;13.50;8.73;;;;;;;;;;4988841;28;20106;-67
2023/01/28 14:30:02;;;;;;;13.13;9.02;;;;;;;;;;4988132;28;20313;-67
2023/01/28 14:32:29;;;;;;;17.80;9.73;;;;;;;;;;4990507;28;20101;-67
2023/01/28 14:34:58;;;;;;;13.05;8.40;;;;;;;;;;4990292;28;20609;-68
2023/01/28 14:37:27;;;;;;;15.70;9.60;;;;;;;;;;4989547;28;20068;-68
2023/01/28 14:39:56;;;;;;;21.85;9.23;;;;;;;;;;4965144;28;20113;-68
2023/01/28 14:42:23;;;;;;;15.82;9.32;;;;;;;;;;4968987;28;20045;-67
2023/01/28 14:44:58;;;;;;;19.00;9.48;;;;;;;;;;4971456;28;20114;-67
2023/01/28 14:47:46;;;;;;;11.57;8.27;;;;;;;;;;4984567;28;20018;-67
2023/01/28 14:50:23;;;;;;;16.25;8.80;;;;;;;;;;4939256;28;20045;-68
2023/01/28 14:52:48;;;;;;;17.15;9.25;;;;;;;;;;4990128;28;20457;-67
2023/01/28 14:55:32;;;;;;;17.05;8.30;;;;;;;;;;4991319;28;20110;-67
2023/01/28 14:57:59;;;;;;;25.92;9.57;;;;;;;;;;4989450;28;20368;-68
2023/01/28 15:00:26;;;;;;;12.95;7.78;;;;;;;;;;4986150;28;20136;-68
2023/01/28 15:02:51;;;;;;;14.00;7.80;;;;;;;;;;4985835;28;20023;-67